Time;durP1;ratioP1;P1;durP2;ratioP2;P2;SDS_P1;SDS_P2;PMS_P1;PMS_P2;Temp;Humidity;BMP_temperature;BMP_pressure;BME280_temperature;BME280_humidity;BME280_pressure;Samples;Min_cycle;Max_cycle;Signal;HPM_P1;HPM_P2
2022/06/08 00:00:39;;;;;;;0.17;0.10;;;22.20;62.60;;;;;;5057260;28;20493;-17
2022/06/08 00:03:11;;;;;;;0.10;0.10;;;22.20;62.50;;;;;;5095384;28;20413;-17
2022/06/08 00:05:37;;;;;;;0.10;0.10;;;22.20;62.60;;;;;;5061752;28;20067;-18
2022/06/08 00:08:03;;;;;;;0.22;0.22;;;22.20;62.60;;;;;;5094017;28;20039;-17
2022/06/08 00:10:28;;;;;;;0.25;0.17;;;22.20;62.70;;;;;;5082318;28;20040;-18
2022/06/08 00:12:54;;;;;;;0.57;0.10;;;22.20;62.80;;;;;;5094635;28;20039;-19
2022/06/08 00:15:20;;;;;;;0.13;0.10;;;22.10;62.70;;;;;;5099351;28;20039;-18
2022/06/08 00:17:45;;;;;;;0.10;0.10;;;22.10;62.60;;;;;;5098739;28;20044;-18
2022/06/08 00:20:11;;;;;;;0.30;0.10;;;22.20;62.60;;;;;;5097951;28;20036;-20
2022/06/08 00:22:37;;;;;;;0.08;0.08;;;22.20;62.60;;;;;;5082286;28;20527;-19
2022/06/08 00:25:04;;;;;;;0.17;0.10;;;22.20;62.70;;;;;;5077838;28;20406;-18
2022/06/08 00:27:30;;;;;;;0.25;0.10;;;22.20;62.90;;;;;;5074008;28;20149;-18
2022/06/08 00:29:55;;;;;;;0.10;0.10;;;22.10;62.70;;;;;;5088307;28;20060;-18
2022/06/08 00:32:21;;;;;;;0.30;0.20;;;22.10;62.80;;;;;;5078728;28;20386;-18
2022/06/08 00:34:46;;;;;;;0.10;0.10;;;22.20;62.80;;;;;;5083658;28;20094;-22
2022/06/08 00:37:12;;;;;;;0.17;0.17;;;22.20;62.70;;;;;;5084327;28;20032;-21
2022/06/08 00:39:37;;;;;;;0.13;0.08;;;22.10;62.70;;;;;;5098234;28;20055;-20
2022/06/08 00:42:05;;;;;;;0.10;0.10;;;22.10;62.80;;;;;;5087411;28;20037;-18
2022/06/08 00:44:49;;;;;;;0.10;0.10;;;22.10;62.80;;;;;;5077347;28;20036;-18
2022/06/08 00:47:39;;;;;;;0.28;0.10;;;22.10;62.80;;;;;;5085022;28;20044;-19
2022/06/08 00:50:21;;;;;;;0.10;0.10;;;22.10;62.70;;;;;;5049044;28;20094;-18
2022/06/08 00:52:47;;;;;;;0.35;0.20;;;22.10;62.80;;;;;;5067502;28;20078;-18
2022/06/08 00:55:14;;;;;;;0.20;0.10;;;22.10;62.80;;;;;;5073496;28;20504;-19
2022/06/08 00:57:56;;;;;;;0.30;0.30;;;22.10;62.80;;;;;;5053442;28;20051;-18
2022/06/08 01:00:25;;;;;;;0.20;0.20;;;22.10;62.80;;;;;;5060764;28;20071;-18
2022/06/08 01:02:50;;;;;;;0.15;0.15;;;22.10;62.80;;;;;;5059747;28;20524;-18
2022/06/08 01:05:22;;;;;;;0.10;0.10;;;22.10;62.70;;;;;;5064458;28;20417;-19
2022/06/08 01:07:48;;;;;;;0.10;0.10;;;22.20;62.80;;;;;;5074657;28;20109;-18
2022/06/08 01:10:15;;;;;;;0.10;0.10;;;22.10;62.80;;;;;;5057118;28;20047;-18
2022/06/08 01:12:41;;;;;;;0.10;0.10;;;22.10;62.80;;;;;;5038926;28;20044;-19
2022/06/08 01:15:07;;;;;;;0.10;0.10;;;22.10;62.90;;;;;;5077649;28;20186;-19
2022/06/08 01:17:33;;;;;;;0.00;0.00;;;22.10;62.90;;;;;;5058175;28;20048;-18
2022/06/08 01:19:58;;;;;;;0.20;0.10;;;22.10;62.90;;;;;;5084140;28;20181;-18
2022/06/08 01:22:24;;;;;;;0.20;0.20;;;22.10;62.90;;;;;;5077627;28;20049;-20
2022/06/08 01:24:51;;;;;;;0.10;0.00;;;22.10;62.90;;;;;;5082333;28;20040;-17
2022/06/08 01:27:26;;;;;;;0.10;0.03;;;22.10;62.90;;;;;;5045525;28;20033;-19
2022/06/08 01:30:03;;;;;;;0.00;0.00;;;22.10;62.90;;;;;;5081210;28;20394;-18
2022/06/08 01:32:51;;;;;;;0.00;0.00;;;22.10;63.00;;;;;;5052710;28;20044;-18
2022/06/08 01:35:26;;;;;;;0.00;0.00;;;22.10;63.00;;;;;;5067054;28;20040;-19
2022/06/08 01:37:51;;;;;;;0.10;0.00;;;22.10;63.00;;;;;;5067169;28;20043;-18
2022/06/08 01:40:42;;;;;;;0.00;0.00;;;22.10;63.10;;;;;;5073700;28;20046;-19
2022/06/08 01:43:43;;;;;;;0.00;0.00;;;22.10;63.00;;;;;;5057189;28;20056;-19
2022/06/08 01:46:22;;;;;;;0.10;0.10;;;22.10;63.10;;;;;;5053788;28;20170;-22
2022/06/08 01:49:12;;;;;;;0.38;0.10;;;22.10;63.10;;;;;;5075937;28;20045;-20
2022/06/08 01:51:58;;;;;;;0.10;0.10;;;22.10;63.10;;;;;;5067529;28;20049;-18
2022/06/08 01:54:53;;;;;;;0.10;0.10;;;22.10;63.10;;;;;;5064066;28;20052;-20
2022/06/08 01:57:19;;;;;;;0.00;0.00;;;22.10;63.10;;;;;;5054105;28;20133;-20
2022/06/08 01:59:52;;;;;;;0.10;0.00;;;22.10;63.20;;;;;;5066720;28;20060;-19
2022/06/08 02:02:25;;;;;;;0.08;0.05;;;22.10;63.10;;;;;;5058706;28;20047;-18
2022/06/08 02:04:57;;;;;;;0.10;0.00;;;22.10;63.20;;;;;;5069389;28;20120;-19
2022/06/08 02:07:54;;;;;;;0.30;0.10;;;22.10;63.20;;;;;;5077042;28;20524;-18
2022/06/08 02:10:40;;;;;;;0.10;0.00;;;22.10;63.20;;;;;;5066732;28;20037;-20
2022/06/08 02:13:21;;;;;;;0.08;0.00;;;22.10;63.20;;;;;;5074794;28;20063;-19
2022/06/08 02:15:48;;;;;;;0.00;0.00;;;22.00;63.20;;;;;;5059431;28;20036;-20
2022/06/08 02:18:23;;;;;;;0.10;0.10;;;22.10;63.20;;;;;;5041490;28;20066;-19
2022/06/08 02:20:51;;;;;;;0.10;0.00;;;22.10;63.20;;;;;;5049755;28;20055;-18
2022/06/08 02:23:23;;;;;;;0.10;0.08;;;22.10;63.20;;;;;;5065295;28;20509;-18
2022/06/08 02:26:06;;;;;;;0.10;0.08;;;22.10;63.20;;;;;;5070045;28;20102;-19
2022/06/08 02:28:40;;;;;;;0.15;0.10;;;22.10;63.30;;;;;;5069156;28;20036;-19
2022/06/08 02:31:10;;;;;;;;;;;22.10;63.30;;;;;;5059033;28;20052;-20
2022/06/08 02:36:33;;;;;;;0.00;0.00;;;22.00;63.30;;;;;;5046786;28;20523;-20
2022/06/08 02:39:12;;;;;;;0.00;0.00;;;22.00;63.30;;;;;;5052850;28;20143;-18
2022/06/08 02:41:39;;;;;;;0.10;0.10;;;22.00;63.30;;;;;;5045872;28;20048;-18
2022/06/08 02:44:06;;;;;;;0.10;0.10;;;22.00;64.10;;;;;;5041338;28;20053;-18
2022/06/08 02:46:47;;;;;;;0.00;0.00;;;22.00;63.30;;;;;;5062735;28;20520;-22
2022/06/08 02:49:12;;;;;;;0.10;0.10;;;22.00;63.30;;;;;;5045475;28;20102;-19
2022/06/08 02:51:41;;;;;;;0.10;0.08;;;22.00;63.30;;;;;;5096466;28;20044;-17
2022/06/08 02:54:12;;;;;;;0.00;0.00;;;22.00;63.30;;;;;;5083699;28;20509;-19
2022/06/08 02:56:37;;;;;;;0.10;0.10;;;22.00;63.30;;;;;;5057573;28;20056;-18
2022/06/08 02:59:13;;;;;;;0.03;0.00;;;22.00;63.30;;;;;;5075200;28;20040;-20
2022/06/08 03:01:45;;;;;;;0.05;0.05;;;22.00;63.30;;;;;;5064226;28;20440;-18
2022/06/08 03:04:23;;;;;;;0.00;0.00;;;22.00;63.30;;;;;;5054886;28;20052;-18
2022/06/08 03:07:00;;;;;;;0.00;0.00;;;22.00;63.40;;;;;;5039738;28;20032;-19
2022/06/08 03:09:26;;;;;;;0.25;0.20;;;22.10;63.30;;;;;;5060947;28;20072;-18
2022/06/08 03:12:00;;;;;;;0.03;0.00;;;22.00;63.30;;;;;;5059906;28;20044;-18
2022/06/08 03:14:26;;;;;;;0.10;0.00;;;22.10;63.30;;;;;;5043518;28;20045;-21
2022/06/08 03:16:56;;;;;;;0.05;0.00;;;22.00;63.40;;;;;;5039183;28;20037;-18
2022/06/08 03:19:22;;;;;;;0.00;0.00;;;22.00;63.50;;;;;;5059847;28;20500;-18
2022/06/08 03:21:47;;;;;;;0.20;0.13;;;22.00;63.30;;;;;;5065710;28;20952;-18
2022/06/08 03:24:13;;;;;;;0.00;0.00;;;22.00;63.40;;;;;;5070464;28;20048;-18
2022/06/08 03:26:44;;;;;;;0.20;0.20;;;22.00;63.50;;;;;;5095598;28;20409;-21
2022/06/08 03:29:10;;;;;;;0.00;0.00;;;22.00;63.40;;;;;;5095079;28;20048;-17
2022/06/08 03:31:35;;;;;;;0.13;0.13;;;22.00;63.50;;;;;;5081561;28;20040;-19
2022/06/08 03:34:01;;;;;;;0.20;0.10;;;22.00;63.40;;;;;;5095051;28;20051;-19
2022/06/08 03:36:27;;;;;;;0.00;0.00;;;22.00;63.30;;;;;;5088685;28;20507;-19
2022/06/08 03:38:52;;;;;;;0.00;0.00;;;22.00;63.30;;;;;;5077604;28;20047;-21
2022/06/08 03:41:18;;;;;;;0.10;0.10;;;22.00;63.40;;;;;;5085912;28;20063;-18
2022/06/08 03:43:43;;;;;;;0.10;0.10;;;22.00;63.60;;;;;;5093586;28;20099;-19
2022/06/08 03:46:10;;;;;;;0.00;0.00;;;22.00;63.30;;;;;;5082163;28;20561;-18
2022/06/08 03:48:36;;;;;;;0.00;0.00;;;22.00;63.30;;;;;;5053642;28;20051;-19
2022/06/08 03:51:02;;;;;;;0.03;0.03;;;22.00;63.40;;;;;;5059794;28;20123;-19
2022/06/08 03:53:34;;;;;;;0.05;0.05;;;22.00;63.40;;;;;;5063155;28;20064;-19
2022/06/08 03:56:00;;;;;;;0.00;0.00;;;22.10;63.40;;;;;;5094679;28;20105;-17
2022/06/08 03:58:26;;;;;;;0.00;0.00;;;22.00;63.30;;;;;;5051547;28;20507;-18
2022/06/08 04:00:51;;;;;;;0.38;0.10;;;22.00;63.40;;;;;;5059896;28;20091;-19
2022/06/08 04:03:17;;;;;;;0.00;0.00;;;22.00;64.10;;;;;;5075105;28;20047;-19
2022/06/08 04:05:42;;;;;;;0.00;0.00;;;22.00;63.50;;;;;;5072762;28;20114;-22
2022/06/08 04:08:08;;;;;;;0.22;0.00;;;22.00;63.50;;;;;;5074347;28;20052;-18
2022/06/08 04:10:34;;;;;;;0.10;0.00;;;22.00;63.50;;;;;;5077882;28;20183;-21
2022/06/08 04:12:59;;;;;;;0.00;0.00;;;22.00;63.60;;;;;;5090766;28;20044;-18
2022/06/08 04:15:43;;;;;;;0.00;0.00;;;22.10;63.30;;;;;;5090874;28;20055;-20
2022/06/08 04:18:14;;;;;;;0.00;0.00;;;22.00;63.30;;;;;;5061804;28;20094;-19
2022/06/08 04:20:40;;;;;;;0.00;0.00;;;22.00;63.50;;;;;;5072738;28;20097;-18
2022/06/08 04:23:05;;;;;;;0.00;0.00;;;22.00;63.40;;;;;;5074623;28;20079;-20
2022/06/08 04:25:31;;;;;;;0.00;0.00;;;22.00;63.50;;;;;;5074193;28;20055;-19
2022/06/08 04:27:57;;;;;;;0.10;0.10;;;22.00;63.40;;;;;;5064127;28;20052;-19
2022/06/08 04:30:23;;;;;;;0.03;0.00;;;22.00;63.50;;;;;;5063960;28;20048;-20
2022/06/08 04:32:48;;;;;;;0.00;0.00;;;22.00;63.40;;;;;;5071275;28;20139;-18
2022/06/08 04:35:14;;;;;;;0.00;0.00;;;22.00;63.50;;;;;;5060473;28;20379;-18
2022/06/08 04:37:40;;;;;;;0.00;0.00;;;22.10;63.60;;;;;;5070482;28;20048;-19
2022/06/08 04:40:07;;;;;;;0.00;0.00;;;22.00;63.60;;;;;;5058679;28;20080;-19
2022/06/08 04:42:33;;;;;;;0.10;0.10;;;22.00;63.50;;;;;;5067133;28;20037;-20
2022/06/08 04:44:58;;;;;;;0.55;0.05;;;22.00;63.40;;;;;;5073073;28;20067;-17
2022/06/08 04:47:24;;;;;;;0.10;0.08;;;22.00;63.40;;;;;;5072546;28;20060;-19
2022/06/08 04:49:50;;;;;;;0.00;0.00;;;22.10;63.60;;;;;;5067281;28;20413;-18
2022/06/08 04:52:15;;;;;;;0.10;0.08;;;22.00;63.60;;;;;;5068346;28;20063;-20
2022/06/08 04:54:41;;;;;;;0.00;0.00;;;22.10;63.60;;;;;;5067850;28;20041;-19
2022/06/08 04:57:07;;;;;;;0.10;0.03;;;22.10;63.60;;;;;;5069601;28;20121;-19
2022/06/08 04:59:32;;;;;;;0.13;0.00;;;22.10;63.60;;;;;;5072608;28;20588;-20
2022/06/08 05:01:58;;;;;;;0.00;0.00;;;22.10;63.60;;;;;;5072133;28;20036;-19
2022/06/08 05:04:23;;;;;;;0.20;0.00;;;22.10;63.60;;;;;;5065973;28;20063;-18
2022/06/08 05:06:49;;;;;;;0.20;0.10;;;22.00;63.60;;;;;;5066526;28;20051;-20
2022/06/08 05:09:14;;;;;;;0.20;0.00;;;22.00;63.80;;;;;;5078453;28;20036;-19
2022/06/08 05:11:40;;;;;;;0.10;0.10;;;22.00;63.90;;;;;;5075951;28;20287;-21
2022/06/08 05:14:05;;;;;;;0.00;0.00;;;22.00;63.80;;;;;;5074391;28;20054;-19
2022/06/08 05:16:31;;;;;;;0.10;0.10;;;22.00;63.70;;;;;;5069760;28;20098;-19
2022/06/08 05:18:57;;;;;;;0.20;0.10;;;22.00;63.60;;;;;;5062135;28;20041;-18
2022/06/08 05:21:22;;;;;;;0.00;0.00;;;22.00;63.70;;;;;;5064954;28;20048;-19
2022/06/08 05:23:48;;;;;;;0.10;0.10;;;22.00;63.80;;;;;;5073042;28;20048;-19
2022/06/08 05:26:14;;;;;;;0.20;0.20;;;22.00;63.60;;;;;;5070660;28;20056;-19
2022/06/08 05:28:40;;;;;;;0.08;0.08;;;22.10;63.40;;;;;;5072277;28;20044;-19
2022/06/08 05:31:06;;;;;;;0.20;0.20;;;22.10;63.50;;;;;;5064324;28;20056;-20
2022/06/08 05:33:31;;;;;;;0.00;0.00;;;22.00;63.50;;;;;;5064995;28;20056;-19
2022/06/08 05:35:57;;;;;;;0.38;0.10;;;22.10;63.40;;;;;;5068885;28;20782;-19
2022/06/08 05:38:23;;;;;;;0.30;0.10;;;22.10;63.30;;;;;;5071376;28;20048;-20
2022/06/08 05:40:48;;;;;;;0.40;0.10;;;22.10;63.30;;;;;;5068590;28;20055;-18
2022/06/08 05:43:14;;;;;;;0.10;0.10;;;22.10;63.30;;;;;;5066094;28;20108;-19
2022/06/08 05:45:40;;;;;;;0.00;0.00;;;22.10;63.30;;;;;;5070900;28;20056;-18
2022/06/08 05:48:07;;;;;;;0.00;0.00;;;22.00;63.40;;;;;;5069484;28;20045;-18
2022/06/08 05:50:33;;;;;;;0.10;0.10;;;22.00;63.40;;;;;;5071636;28;20456;-20
2022/06/08 05:52:59;;;;;;;0.17;0.08;;;22.00;63.40;;;;;;5054314;28;20131;-19
2022/06/08 05:55:25;;;;;;;0.00;0.00;;;22.00;63.30;;;;;;5069225;28;20175;-21
2022/06/08 05:57:53;;;;;;;0.15;0.10;;;22.00;63.40;;;;;;5072224;28;20036;-20
2022/06/08 06:00:27;;;;;;;0.47;0.13;;;22.00;63.40;;;;;;5071674;28;20048;-19
2022/06/08 06:02:52;;;;;;;0.03;0.00;;;22.10;63.40;;;;;;5069009;28;20688;-18
2022/06/08 06:05:20;;;;;;;0.85;0.00;;;22.10;63.50;;;;;;5072229;28;20147;-18
2022/06/08 06:07:46;;;;;;;0.20;0.10;;;22.10;63.40;;;;;;5072496;28;20528;-18
2022/06/08 06:10:11;;;;;;;0.20;0.10;;;22.10;63.40;;;;;;5072948;28;20421;-18
2022/06/08 06:12:37;;;;;;;0.10;0.10;;;22.10;63.30;;;;;;5071052;28;20098;-20
2022/06/08 06:15:03;;;;;;;0.30;0.15;;;22.10;63.30;;;;;;5066326;28;20566;-18
2022/06/08 06:17:29;;;;;;;0.10;0.10;;;22.10;63.40;;;;;;5070628;28;20036;-18
2022/06/08 06:19:56;;;;;;;0.20;0.20;;;22.10;63.30;;;;;;5074211;28;20110;-18
2022/06/08 06:22:21;;;;;;;0.15;0.00;;;22.10;63.50;;;;;;5077947;28;20546;-18
2022/06/08 06:24:47;;;;;;;0.15;0.10;;;22.10;63.40;;;;;;5068293;28;20072;-18
2022/06/08 06:27:12;;;;;;;0.15;0.15;;;22.10;63.30;;;;;;5071400;28;20040;-19
2022/06/08 06:29:38;;;;;;;0.70;0.20;;;22.10;63.40;;;;;;5069241;28;20044;-19
2022/06/08 06:32:05;;;;;;;0.20;0.10;;;22.10;63.60;;;;;;5073429;28;20119;-18
2022/06/08 06:34:31;;;;;;;0.10;0.10;;;22.10;63.60;;;;;;5069086;28;20041;-18
2022/06/08 06:36:58;;;;;;;0.20;0.20;;;22.10;63.60;;;;;;5073793;28;20046;-18
2022/06/08 06:39:26;;;;;;;0.30;0.20;;;22.00;63.60;;;;;;5075987;28;20047;-20
2022/06/08 06:41:51;;;;;;;0.10;0.10;;;22.00;63.60;;;;;;5077555;28;20041;-18
2022/06/08 06:44:17;;;;;;;0.15;0.10;;;22.10;63.60;;;;;;5039406;28;20049;-21
2022/06/08 06:46:43;;;;;;;0.15;0.00;;;22.00;63.50;;;;;;5066101;28;20040;-20
2022/06/08 06:49:08;;;;;;;1.55;0.20;;;22.10;63.50;;;;;;5076079;28;20074;-19
2022/06/08 06:51:34;;;;;;;0.32;0.20;;;22.10;63.60;;;;;;5078412;28;20552;-19
2022/06/08 06:54:01;;;;;;;1.15;0.30;;;22.10;63.40;;;;;;5074769;28;20066;-20
2022/06/08 06:56:27;;;;;;;0.10;0.10;;;22.00;63.50;;;;;;5075926;28;20425;-18
2022/06/08 06:58:53;;;;;;;0.47;0.20;;;22.00;63.60;;;;;;5085802;28;20064;-19
2022/06/08 07:01:18;;;;;;;0.20;0.20;;;22.00;63.50;;;;;;5075493;28;20040;-19
2022/06/08 07:03:44;;;;;;;0.35;0.20;;;22.10;63.60;;;;;;5068081;28;20051;-17
2022/06/08 07:06:10;;;;;;;0.32;0.20;;;22.10;63.60;;;;;;5082765;28;20048;-18
2022/06/08 07:08:36;;;;;;;0.45;0.10;;;22.00;63.60;;;;;;5075723;28;20048;-19
2022/06/08 07:13:47;;;;;;;0.22;0.22;;;22.10;63.30;;;;;;5072982;28;20590;-18
2022/06/08 07:16:13;;;;;;;0.13;0.13;;;22.10;63.20;;;;;;5094270;28;20040;-17
2022/06/08 07:18:38;;;;;;;0.55;0.30;;;22.10;63.20;;;;;;5082712;28;20457;-19
2022/06/08 07:21:04;;;;;;;0.40;0.20;;;22.20;63.20;;;;;;5075120;28;20036;-18
2022/06/08 07:23:30;;;;;;;0.57;0.40;;;22.10;63.10;;;;;;5076009;28;20060;-19
2022/06/08 07:25:55;;;;;;;0.43;0.20;;;22.10;63.00;;;;;;5075113;28;20036;-20
2022/06/08 07:28:22;;;;;;;0.50;0.40;;;22.10;63.00;;;;;;5074155;28;20040;-20
2022/06/08 07:30:47;;;;;;;0.55;0.20;;;22.10;63.10;;;;;;5081612;28;20500;-18
2022/06/08 07:33:13;;;;;;;0.45;0.40;;;22.10;62.90;;;;;;5077126;28;20405;-19
2022/06/08 07:35:38;;;;;;;0.57;0.22;;;22.20;63.00;;;;;;5074795;28;20091;-18
2022/06/08 07:38:04;;;;;;;0.55;0.38;;;22.20;63.00;;;;;;5074670;28;20371;-18
2022/06/08 07:40:30;;;;;;;0.82;0.40;;;22.20;62.90;;;;;;5075142;28;20043;-20
2022/06/08 07:42:56;;;;;;;0.50;0.30;;;22.20;62.80;;;;;;5075470;28;20040;-18
2022/06/08 07:45:21;;;;;;;0.40;0.20;;;22.20;62.80;;;;;;5072475;28;20052;-19
2022/06/08 07:50:32;;;;;;;0.25;0.22;;;22.20;62.80;;;;;;5074903;28;20063;-19
2022/06/08 07:52:57;;;;;;;0.65;0.40;;;22.10;63.00;;;;;;5092125;28;20044;-21
2022/06/08 07:55:23;;;;;;;0.30;0.20;;;22.10;62.80;;;;;;5075959;28;20383;-19
2022/06/08 07:57:50;;;;;;;0.20;0.10;;;22.20;62.60;;;;;;5055256;28;20510;-20
2022/06/08 08:00:16;;;;;;;0.32;0.20;;;22.20;62.60;;;;;;5054542;28;20041;-19
2022/06/08 08:02:41;;;;;;;0.30;0.20;;;22.20;62.50;;;;;;5072218;28;20048;-18
2022/06/08 08:05:11;;;;;;;0.40;0.20;;;22.20;62.60;;;;;;5068151;28;20036;-22
2022/06/08 08:07:38;;;;;;;0.40;0.40;;;22.30;62.50;;;;;;5058570;28;20043;-20
2022/06/08 08:10:05;;;;;;;0.32;0.20;;;22.20;62.50;;;;;;5083893;28;20041;-19
2022/06/08 08:12:30;;;;;;;0.40;0.30;;;22.20;62.50;;;;;;5075144;28;20045;-18
2022/06/08 08:14:56;;;;;;;0.82;0.30;;;22.20;62.50;;;;;;5082616;28;20047;-20
2022/06/08 08:17:21;;;;;;;0.45;0.20;;;22.30;62.30;;;;;;5075335;28;20044;-18
2022/06/08 08:19:47;;;;;;;0.30;0.20;;;22.20;62.30;;;;;;5073825;28;20037;-18
2022/06/08 08:22:15;;;;;;;0.40;0.20;;;22.20;62.40;;;;;;5080063;28;20032;-18
2022/06/08 08:24:41;;;;;;;0.20;0.20;;;22.20;62.30;;;;;;5074418;28;20041;-19
2022/06/08 08:27:06;;;;;;;0.20;0.20;;;22.20;62.30;;;;;;5054438;28;20048;-19
2022/06/08 08:29:32;;;;;;;0.30;0.22;;;22.20;62.40;;;;;;5072596;28;20071;-19
2022/06/08 08:31:57;;;;;;;0.82;0.30;;;22.30;62.40;;;;;;5077233;28;20048;-20
2022/06/08 08:34:23;;;;;;;0.30;0.30;;;22.30;62.20;;;;;;5074912;28;20033;-19
2022/06/08 08:36:49;;;;;;;0.85;0.35;;;22.20;62.20;;;;;;5077810;28;20036;-18
2022/06/08 08:39:15;;;;;;;0.52;0.40;;;22.20;62.10;;;;;;5058695;28;20058;-20
2022/06/08 08:44:35;;;;;;;1.02;0.15;;;22.20;62.10;;;;;;5058026;28;20414;-18
2022/06/08 08:47:09;;;;;;;0.47;0.30;;;22.20;62.20;;;;;;5065630;28;20048;-20
2022/06/08 08:49:35;;;;;;;0.32;0.28;;;22.30;61.90;;;;;;5078020;28;20046;-19
2022/06/08 08:52:03;;;;;;;0.45;0.30;;;22.30;61.90;;;;;;5078459;28;20517;-18
2022/06/08 08:54:36;;;;;;;0.73;0.20;;;22.30;61.90;;;;;;5077566;28;20040;-21
2022/06/08 08:57:11;;;;;;;0.75;0.30;;;22.20;61.90;;;;;;5077786;28;20119;-21
2022/06/08 08:59:37;;;;;;;0.50;0.20;;;22.20;61.90;;;;;;5070973;28;20135;-18
2022/06/08 09:02:03;;;;;;;0.40;0.20;;;22.20;61.90;;;;;;5060331;28;20122;-19
2022/06/08 09:04:33;;;;;;;0.28;0.20;;;22.30;61.90;;;;;;5059081;28;20055;-19
2022/06/08 09:07:11;;;;;;;1.75;0.30;;;22.20;61.80;;;;;;5076240;28;20063;-20
2022/06/08 09:09:37;;;;;;;0.45;0.20;;;22.20;61.90;;;;;;5056237;28;20053;-20
2022/06/08 09:12:02;;;;;;;0.47;0.20;;;22.20;61.80;;;;;;5058024;28;20049;-18
2022/06/08 09:14:44;;;;;;;0.47;0.20;;;22.20;61.80;;;;;;5057324;28;20041;-20
2022/06/08 09:17:31;;;;;;;0.45;0.40;;;22.20;61.80;;;;;;5073261;28;20075;-20
2022/06/08 09:19:56;;;;;;;0.30;0.20;;;22.30;61.50;;;;;;5078019;28;20037;-21
2022/06/08 09:22:24;;;;;;;0.45;0.30;;;22.30;61.50;;;;;;5074612;28;20143;-19
2022/06/08 09:24:53;;;;;;;0.28;0.28;;;22.30;61.50;;;;;;5077462;28;20537;-18
2022/06/08 09:27:36;;;;;;;0.30;0.30;;;22.30;61.60;;;;;;5079458;28;20098;-18
2022/06/08 09:30:07;;;;;;;0.30;0.20;;;22.30;61.50;;;;;;5057838;28;20037;-18
2022/06/08 09:32:53;;;;;;;0.43;0.40;;;22.30;61.40;;;;;;5061422;28;20091;-20
2022/06/08 09:35:26;;;;;;;0.40;0.30;;;22.40;61.30;;;;;;5067574;28;20048;-18
2022/06/08 09:37:53;;;;;;;0.43;0.30;;;22.40;61.30;;;;;;5070594;28;20044;-19
2022/06/08 09:40:40;;;;;;;0.40;0.30;;;22.40;61.20;;;;;;5088276;28;20036;-19
2022/06/08 09:43:24;;;;;;;0.65;0.28;;;22.30;61.40;;;;;;5084532;28;20040;-20
2022/06/08 09:46:08;;;;;;;0.28;0.28;;;22.30;61.40;;;;;;5056314;28;20051;-19
2022/06/08 09:51:50;;;;;;;0.32;0.20;;;22.40;61.50;;;;;;5058087;28;20114;-18
2022/06/08 09:54:25;;;;;;;1.13;0.68;;;22.40;61.50;;;;;;5069755;28;20151;-19
2022/06/08 09:56:57;;;;;;;0.40;0.30;;;22.40;61.40;;;;;;5059011;28;20051;-20
2022/06/08 09:59:41;;;;;;;0.40;0.40;;;22.40;61.40;;;;;;5065894;28;20053;-22
2022/06/08 10:02:31;;;;;;;0.35;0.25;;;22.40;61.30;;;;;;5076035;28;20182;-20
2022/06/08 10:05:00;;;;;;;0.13;0.10;;;22.40;61.30;;;;;;5072801;28;20052;-19
2022/06/08 10:07:57;;;;;;;1.02;0.30;;;22.50;61.20;;;;;;5058495;28;20045;-19
2022/06/08 10:10:49;;;;;;;0.43;0.30;;;22.50;61.20;;;;;;5061458;28;20032;-20
2022/06/08 10:13:29;;;;;;;0.32;0.25;;;22.50;60.90;;;;;;5079474;28;20036;-18
2022/06/08 10:16:01;;;;;;;0.40;0.30;;;22.60;60.90;;;;;;5060207;28;20036;-19
2022/06/08 10:18:31;;;;;;;0.40;0.30;;;22.50;61.00;;;;;;5067335;28;20044;-19
2022/06/08 10:21:04;;;;;;;0.40;0.32;;;22.50;61.00;;;;;;5042654;28;20037;-18
2022/06/08 10:23:36;;;;;;;0.70;0.38;;;22.60;60.90;;;;;;5053321;28;20060;-18
2022/06/08 10:26:04;;;;;;;0.77;0.38;;;22.60;61.00;;;;;;5041492;28;20041;-19
2022/06/08 10:28:41;;;;;;;0.30;0.30;;;22.60;61.00;;;;;;5079472;28;20052;-19
2022/06/08 10:31:23;;;;;;;0.40;0.30;;;22.60;60.80;;;;;;5060059;28;20041;-20
2022/06/08 10:33:54;;;;;;;0.30;0.28;;;22.70;61.10;;;;;;5060432;28;20691;-18
2022/06/08 10:36:20;;;;;;;0.60;0.20;;;22.70;60.70;;;;;;4718381;28;10001777;-20
2022/06/08 10:38:45;;;;;;;0.22;0.22;;;22.70;60.70;;;;;;5040995;28;20040;-19
2022/06/08 10:44:52;;;;;;;0.20;0.20;;;22.80;61.10;;;;;;4972830;28;20049;-20
2022/06/08 10:47:26;;;;;;;0.85;0.40;;;22.80;60.90;;;;;;4962271;28;20045;-18
2022/06/08 10:49:52;;;;;;;;;;;22.80;61.00;;;;;;5038996;28;20037;-18
2022/06/08 10:52:18;;;;;;;0.57;0.22;;;22.90;60.70;;;;;;5067120;28;19916;-19
2022/06/08 10:54:55;;;;;;;0.57;0.30;;;22.80;60.60;;;;;;5083979;28;20459;-19
2022/06/08 10:57:31;;;;;;;0.30;0.20;;;22.80;60.90;;;;;;5057076;28;20052;-19
2022/06/08 11:00:18;;;;;;;0.40;0.40;;;22.90;60.60;;;;;;5071172;28;20070;-18
2022/06/08 11:03:01;;;;;;;0.50;0.35;;;22.80;60.40;;;;;;5076438;28;20055;-18
2022/06/08 11:05:46;;;;;;;0.85;0.55;;;22.80;60.40;;;;;;5061895;28;20771;-18
2022/06/08 11:08:13;;;;;;;0.50;0.40;;;22.80;60.60;;;;;;5060863;28;20047;-18
2022/06/08 11:10:43;;;;;;;0.43;0.35;;;22.70;60.60;;;;;;5072134;28;20037;-18
2022/06/08 11:13:19;;;;;;;0.25;0.25;;;22.70;60.70;;;;;;5074835;28;20059;-19
2022/06/08 11:16:24;;;;;;;0.43;0.30;;;22.70;60.60;;;;;;5052673;28;20131;-19
2022/06/08 11:18:54;;;;;;;0.40;0.28;;;22.70;60.40;;;;;;5053974;28;20048;-18
2022/06/08 11:21:52;;;;;;;0.70;0.40;;;22.70;60.20;;;;;;5044279;28;20075;-18
2022/06/08 11:24:23;;;;;;;0.45;0.20;;;22.70;60.10;;;;;;5051854;28;20049;-19
2022/06/08 11:27:09;;;;;;;0.45;0.30;;;22.70;59.80;;;;;;5054419;28;20057;-18
2022/06/08 11:29:36;;;;;;;0.52;0.40;;;22.70;59.70;;;;;;5071462;28;20055;-19
2022/06/08 11:32:02;;;;;;;0.88;0.50;;;22.80;59.60;;;;;;5059872;28;20037;-20
2022/06/08 11:34:35;;;;;;;0.40;0.30;;;22.70;59.30;;;;;;5063731;28;20041;-20
2022/06/08 11:37:13;;;;;;;0.70;0.30;;;22.70;59.20;;;;;;5054226;28;20050;-22
2022/06/08 11:40:00;;;;;;;0.70;0.43;;;22.70;59.10;;;;;;5079979;28;20135;-19
2022/06/08 11:42:32;;;;;;;0.45;0.38;;;22.80;59.00;;;;;;5085969;28;20106;-19
2022/06/08 11:45:13;;;;;;;0.52;0.40;;;22.70;58.80;;;;;;5058504;28;20036;-18
2022/06/08 11:48:00;;;;;;;0.68;0.43;;;22.80;58.60;;;;;;5041377;28;20491;-20
2022/06/08 11:50:29;;;;;;;1.08;0.47;;;22.70;58.40;;;;;;5068042;28;20051;-23
2022/06/08 11:53:05;;;;;;;1.45;0.65;;;22.70;58.20;;;;;;5071356;28;20040;-21
2022/06/08 11:55:34;;;;;;;1.08;0.43;;;22.80;58.10;;;;;;5080158;28;20044;-19
2022/06/08 11:58:08;;;;;;;1.15;0.70;;;22.80;58.10;;;;;;5040879;28;20068;-18
2022/06/08 12:00:51;;;;;;;0.80;0.50;;;22.80;57.90;;;;;;5061147;28;20055;-20
2022/06/08 12:03:16;;;;;;;0.68;0.38;;;22.80;58.00;;;;;;5075523;28;20044;-18
2022/06/08 12:05:43;;;;;;;0.57;0.40;;;22.80;57.90;;;;;;5074161;28;20059;-19
2022/06/08 12:08:18;;;;;;;0.70;0.40;;;22.80;57.80;;;;;;5056135;28;20497;-18
2022/06/08 12:10:43;;;;;;;2.30;0.52;;;22.80;57.90;;;;;;5024316;28;20047;-20
2022/06/08 12:13:21;;;;;;;0.90;0.57;;;22.80;57.80;;;;;;5083782;28;20044;-19
2022/06/08 12:15:48;;;;;;;0.85;0.70;;;22.80;57.80;;;;;;5064731;28;20531;-20
2022/06/08 12:18:24;;;;;;;0.50;0.20;;;22.80;57.80;;;;;;5081802;28;20044;-18
2022/06/08 12:21:20;;;;;;;0.73;0.30;;;22.80;57.80;;;;;;5092326;28;20064;-21
2022/06/08 12:24:02;;;;;;;0.93;0.68;;;22.80;57.80;;;;;;5082052;28;20055;-19
2022/06/08 12:26:46;;;;;;;0.77;0.60;;;22.80;57.90;;;;;;5077878;28;20052;-18
2022/06/08 12:29:19;;;;;;;;;;;22.80;57.90;;;;;;5078248;28;20136;-19
2022/06/08 12:31:47;;;;;;;0.90;0.50;;;22.80;57.90;;;;;;5041188;28;19923;-20
2022/06/08 12:34:26;;;;;;;0.40;0.30;;;22.80;57.90;;;;;;5067907;28;20143;-19
2022/06/08 12:36:52;;;;;;;0.73;0.55;;;22.80;57.90;;;;;;5082331;28;20400;-20
2022/06/08 12:39:23;;;;;;;1.02;0.40;;;22.80;57.90;;;;;;5065809;28;20123;-18
2022/06/08 12:41:54;;;;;;;1.20;0.50;;;22.80;57.90;;;;;;5045893;28;20040;-20
2022/06/08 12:44:21;;;;;;;0.63;0.40;;;22.80;57.90;;;;;;5060168;28;20048;-18
2022/06/08 12:46:58;;;;;;;1.85;0.60;;;22.80;57.90;;;;;;5093354;28;20040;-20
2022/06/08 12:49:44;;;;;;;0.45;0.38;;;22.80;58.00;;;;;;5093069;28;20394;-20
2022/06/08 12:52:29;;;;;;;1.27;0.38;;;22.80;58.00;;;;;;5083556;28;20040;-19
2022/06/08 12:54:55;;;;;;;0.88;0.40;;;22.80;58.10;;;;;;5072655;28;20117;-19
2022/06/08 12:57:24;;;;;;;0.60;0.35;;;22.80;58.20;;;;;;5059493;28;20521;-19
2022/06/08 12:59:57;;;;;;;0.55;0.38;;;22.80;58.10;;;;;;5058245;28;20045;-19
2022/06/08 13:02:28;;;;;;;0.98;0.47;;;22.80;58.10;;;;;;5076225;28;20067;-19
2022/06/08 13:04:54;;;;;;;1.25;0.40;;;22.80;58.20;;;;;;5081809;28;20569;-19
2022/06/08 13:07:22;;;;;;;0.50;0.50;;;22.80;58.00;;;;;;5039677;28;20398;-19
2022/06/08 13:09:48;;;;;;;0.63;0.28;;;22.90;58.00;;;;;;5059441;28;20040;-19
2022/06/08 13:12:34;;;;;;;0.60;0.40;;;22.90;58.00;;;;;;5076591;28;20032;-19
2022/06/08 13:15:00;;;;;;;0.68;0.40;;;22.90;58.10;;;;;;5060907;28;20051;-20
2022/06/08 13:17:25;;;;;;;0.43;0.28;;;22.90;58.00;;;;;;5087984;28;20497;-19
2022/06/08 13:19:52;;;;;;;0.43;0.22;;;22.90;58.00;;;;;;5088450;28;20040;-21
2022/06/08 13:22:18;;;;;;;0.38;0.38;;;22.90;58.20;;;;;;5076125;28;20390;-17